Time;durP1;ratioP1;P1;durP2;ratioP2;P2;SDS_P1;SDS_P2;PMS_P1;PMS_P2;Temp;Humidity;BMP_temperature;BMP_pressure;BME280_temperature;BME280_humidity;BME280_pressure;Samples;Min_cycle;Max_cycle;Signal;HPM_P1;HPM_P2
2021/08/23 00:06:33;;;;;;;11.32;3.90;;;30.50;27.30;;;;;;21131197;27;80549;-72
2021/08/23 00:16:35;;;;;;;15.48;3.85;;;30.30;28.50;;;;;;21131128;27;81262;-72
2021/08/23 00:26:37;;;;;;;11.77;4.00;;;30.10;29.60;;;;;;21130361;27;81003;-71
2021/08/23 00:36:40;;;;;;;8.77;3.65;;;29.90;30.30;;;;;;21129628;27;79916;-72
2021/08/23 00:46:42;;;;;;;6.25;3.15;;;29.80;31.20;;;;;;21146942;27;80546;-73
2021/08/23 00:56:43;;;;;;;8.88;3.22;;;29.70;31.90;;;;;;21127549;27;80497;-73
2021/08/23 01:06:45;;;;;;;9.63;3.30;;;29.40;32.80;;;;;;21127298;27;80700;-71
2021/08/23 01:16:48;;;;;;;7.90;3.80;;;29.30;33.20;;;;;;21143149;27;80653;-73
2021/08/23 01:26:53;;;;;;;8.18;3.28;;;29.00;33.60;;;;;;21142523;27;80324;-73
2021/08/23 01:36:55;;;;;;;5.05;3.13;;;28.80;34.30;;;;;;21211659;27;79964;-73
2021/08/23 01:46:57;;;;;;;7.95;3.28;;;28.50;36.10;;;;;;21230232;27;81165;-73
2021/08/23 01:57:06;;;;;;;8.55;2.90;;;28.30;36.40;;;;;;21212124;27;82007;-74
2021/08/23 02:07:15;;;;;;;5.45;3.22;;;28.10;37.00;;;;;;21227580;27;80760;-73
2021/08/23 02:17:20;;;;;;;5.10;3.03;;;28.00;36.80;;;;;;21227762;27;81974;-74
2021/08/23 02:27:24;;;;;;;6.70;3.00;;;27.90;37.30;;;;;;21208571;27;81959;-72
2021/08/23 02:37:27;;;;;;;6.03;2.67;;;27.90;37.60;;;;;;21226193;27;81851;-71
2021/08/23 02:47:31;;;;;;;8.15;3.78;;;27.70;37.70;;;;;;21207367;27;81211;-73
2021/08/23 02:57:37;;;;;;;3.60;2.53;;;27.70;38.40;;;;;;21225524;27;80583;-73
2021/08/23 03:07:43;;;;;;;8.30;3.03;;;27.70;38.00;;;;;;21224115;27;80071;-74
2021/08/23 03:17:47;;;;;;;4.85;2.55;;;27.50;38.50;;;;;;21205533;27;80701;-73
2021/08/23 03:28:09;;;;;;;8.63;3.03;;;27.50;38.90;;;;;;21237252;27;80022;-72
2021/08/23 03:38:30;;;;;;;6.93;2.80;;;27.30;39.20;;;;;;21224168;27;80325;-72
2021/08/23 03:48:43;;;;;;;7.05;2.75;;;27.10;40.70;;;;;;21238096;27;80635;-73
2021/08/23 03:58:50;;;;;;;6.30;3.00;;;27.10;40.90;;;;;;21219303;27;81921;-76
2021/08/23 04:08:58;;;;;;;9.73;3.17;;;27.20;40.80;;;;;;21220015;27;82445;-75
2021/08/23 04:19:09;;;;;;;8.50;2.90;;;27.20;40.70;;;;;;21219626;27;80679;-73
2021/08/23 04:29:15;;;;;;;14.40;3.55;;;27.20;39.40;;;;;;21235920;27;81210;-72
2021/08/23 04:39:21;;;;;;;9.82;3.13;;;27.20;40.90;;;;;;21216504;27;80017;-72
2021/08/23 04:49:27;;;;;;;8.45;3.88;;;27.00;40.80;;;;;;21234262;27;80060;-73
2021/08/23 04:59:30;;;;;;;8.65;3.00;;;26.80;40.50;;;;;;21214400;27;82195;-74
2021/08/23 05:09:34;;;;;;;8.10;2.50;;;26.60;40.50;;;;;;21144385;27;81328;-71
2021/08/23 05:19:37;;;;;;;7.90;3.15;;;26.40;41.10;;;;;;21144670;27;80843;-73
2021/08/23 05:29:40;;;;;;;10.50;3.38;;;26.30;41.00;;;;;;21144384;27;81090;-72
2021/08/23 05:39:45;;;;;;;5.18;2.60;;;26.20;41.60;;;;;;21124986;27;81711;-74
2021/08/23 05:49:49;;;;;;;8.68;3.05;;;26.10;41.80;;;;;;21128794;27;80892;-73
2021/08/23 05:59:51;;;;;;;9.32;3.53;;;26.00;43.70;;;;;;21111188;27;80582;-72
2021/08/23 06:09:54;;;;;;;11.55;3.78;;;26.00;42.00;;;;;;21033934;27;81995;-73
2021/08/23 06:19:57;;;;;;;5.30;3.22;;;26.20;41.30;;;;;;21022915;27;81116;-75
2021/08/23 06:30:02;;;;;;;13.05;3.70;;;26.30;41.40;;;;;;21020111;27;82056;-75
2021/08/23 06:40:08;;;;;;;8.13;3.15;;;26.40;41.30;;;;;;21043488;27;81900;-71
2021/08/23 06:50:13;;;;;;;11.65;2.90;;;26.60;41.80;;;;;;21041682;27;81185;-67
2021/08/23 07:00:15;;;;;;;9.35;3.60;;;26.50;40.80;;;;;;21024386;27;81936;-66
2021/08/23 07:10:18;;;;;;;10.95;3.75;;;26.60;41.00;;;;;;21019285;27;82781;-66
2021/08/23 07:20:20;;;;;;;10.40;3.33;;;26.80;41.30;;;;;;21020158;27;81398;-67
2021/08/23 07:30:23;;;;;;;9.52;3.88;;;27.20;40.00;;;;;;21028994;27;82236;-67
2021/08/23 07:40:24;;;;;;;16.73;3.80;;;27.30;39.30;;;;;;21021083;27;81346;-67
2021/08/23 07:50:27;;;;;;;9.35;3.10;;;27.50;39.00;;;;;;21019572;27;81490;-67
2021/08/23 08:00:31;;;;;;;13.20;3.45;;;27.70;40.30;;;;;;21018391;27;81437;-68
2021/08/23 08:10:35;;;;;;;7.97;3.13;;;28.30;37.50;;;;;;21130011;27;80809;-66
2021/08/23 08:20:39;;;;;;;11.40;4.18;;;28.90;36.00;;;;;;21132684;27;82043;-72
2021/08/23 08:30:42;;;;;;;11.30;3.95;;;29.40;34.90;;;;;;21138346;27;81832;-68
2021/08/23 08:40:45;;;;;;;15.07;3.97;;;29.50;35.00;;;;;;21116839;27;81690;-65
2021/08/23 08:50:50;;;;;;;7.85;3.25;;;29.50;34.20;;;;;;21113643;27;80737;-67
2021/08/23 09:00:53;;;;;;;11.18;3.15;;;30.00;33.20;;;;;;21132951;27;81292;-65
2021/08/23 09:11:18;;;;;;;16.92;3.60;;;30.40;33.30;;;;;;21133667;27;82863;-65
2021/08/23 09:21:32;;;;;;;11.82;3.30;;;30.70;32.90;;;;;;21111536;27;81451;-65
2021/08/23 09:31:36;;;;;;;13.38;3.22;;;30.90;33.10;;;;;;21113942;27;82781;-66
2021/08/23 09:41:42;;;;;;;10.35;4.05;;;31.30;32.20;;;;;;21115281;27;81822;-64
2021/08/23 09:51:47;;;;;;;14.63;3.22;;;32.00;29.90;;;;;;21113381;27;81275;-66
2021/08/23 10:01:50;;;;;;;13.35;3.17;;;32.80;28.80;;;;;;21129639;27;81749;-66
2021/08/23 10:11:58;;;;;;;9.07;3.05;;;33.60;28.10;;;;;;21113155;27;81923;-68
2021/08/23 10:22:00;;;;;;;11.88;3.67;;;34.60;25.90;;;;;;21108695;27;81072;-67
2021/08/23 10:32:09;;;;;;;9.10;3.25;;;35.70;24.50;;;;;;21112005;27;81069;-67
2021/08/23 10:42:14;;;;;;;12.45;3.50;;;37.20;22.60;;;;;;21110571;27;81638;-68
2021/08/23 10:52:17;;;;;;;8.70;3.22;;;38.80;20.60;;;;;;21128536;27;80791;-66
2021/08/23 11:02:32;;;;;;;12.10;3.22;;;41.00;19.20;;;;;;21109999;27;82199;-68
2021/08/23 11:12:49;;;;;;;9.77;4.10;;;43.30;17.70;;;;;;21109598;27;80541;-67
2021/08/23 11:22:57;;;;;;;13.32;3.67;;;45.90;16.40;;;;;;21126885;27;81087;-66
2021/08/23 11:32:59;;;;;;;11.55;4.07;;;48.40;15.30;;;;;;21108935;27;81375;-65
2021/08/23 11:43:05;;;;;;;13.45;3.92;;;50.90;13.60;;;;;;21124729;27;81865;-67
2021/08/23 11:53:12;;;;;;;12.02;3.80;;;51.90;13.30;;;;;;21117629;27;81260;-63
2021/08/23 12:03:16;;;;;;;12.20;3.75;;;53.10;12.80;;;;;;21135563;27;81368;-66
2021/08/23 12:13:19;;;;;;;11.27;4.53;;;54.50;12.10;;;;;;21139509;27;82037;-67
2021/08/23 12:23:21;;;;;;;14.80;4.78;;;55.30;11.90;;;;;;21120563;27;82525;-65
2021/08/23 12:33:25;;;;;;;12.27;5.10;;;52.50;12.70;;;;;;21118825;27;81601;-65
2021/08/23 12:43:27;;;;;;;8.95;4.50;;;51.70;13.20;;;;;;21128854;27;82009;-69
2021/08/23 12:53:29;;;;;;;12.98;4.15;;;54.80;11.50;;;;;;21129193;27;81916;-66
2021/08/23 13:03:33;;;;;;;13.02;4.28;;;57.00;11.00;;;;;;21129544;27;79964;-68
2021/08/23 13:13:37;;;;;;;12.07;5.00;;;56.40;10.80;;;;;;21129176;27;80731;-70
2021/08/23 13:23:39;;;;;;;14.60;5.07;;;51.70;12.10;;;;;;21111522;27;80024;-61
2021/08/23 13:33:41;;;;;;;19.85;4.25;;;49.20;12.80;;;;;;21126320;27;80537;-63
2021/08/23 13:43:46;;;;;;;17.02;5.10;;;49.80;12.50;;;;;;21124983;27;81337;-62
2021/08/23 13:53:58;;;;;;;13.85;4.40;;;52.20;11.80;;;;;;21144261;27;81081;-62
2021/08/23 14:04:00;;;;;;;9.00;4.82;;;54.40;11.40;;;;;;21124188;27;80821;-62
2021/08/23 14:14:05;;;;;;;14.45;5.13;;;53.60;11.50;;;;;;21142519;27;80740;-63
2021/08/23 14:24:08;;;;;;;;;;;54.00;10.80;;;;;;21124573;27;80359;-62
2021/08/23 14:34:12;;;;;;;12.13;7.10;;;53.80;11.10;;;;;;21145703;27;80828;-61
2021/08/23 14:44:14;;;;;;;13.03;6.73;;;57.60;9.90;;;;;;21120089;27;80162;-62
2021/08/23 14:54:16;;;;;;;8.27;5.77;;;57.10;10.10;;;;;;21137291;27;81642;-62
2021/08/23 15:04:18;;;;;;;14.18;6.38;;;55.50;10.50;;;;;;21122897;27;82087;-62
2021/08/23 15:14:21;;;;;;;;;;;54.20;10.80;;;;;;21121894;27;80652;-62
2021/08/23 15:24:23;;;;;;;14.55;5.32;;;52.70;11.20;;;;;;21157455;27;80022;-70
2021/08/23 15:34:25;;;;;;;16.17;6.05;;;49.70;12.80;;;;;;21134401;27;79961;-69
2021/08/23 15:44:27;;;;;;;17.02;6.15;;;47.30;12.70;;;;;;21134286;27;81889;-69
2021/08/23 15:54:29;;;;;;;12.85;4.05;;;45.90;12.90;;;;;;21133591;27;81106;-68
2021/08/23 16:04:33;;;;;;;19.88;4.90;;;44.40;13.50;;;;;;21133080;27;80067;-67
2021/08/23 16:14:35;;;;;;;13.50;4.85;;;42.40;14.40;;;;;;21131786;27;80857;-68
2021/08/23 16:24:38;;;;;;;22.40;5.43;;;41.40;15.40;;;;;;21133028;27;80109;-70
2021/08/23 16:34:40;;;;;;;11.70;4.60;;;40.40;16.10;;;;;;21132461;27;81785;-70
2021/08/23 16:44:42;;;;;;;13.45;3.78;;;38.90;18.10;;;;;;21131572;27;81425;-70
2021/08/23 16:54:44;;;;;;;9.45;3.15;;;38.40;18.10;;;;;;21128755;27;80833;-68
2021/08/23 17:04:46;;;;;;;14.02;5.28;;;38.10;18.30;;;;;;21128867;27;81830;-70
2021/08/23 17:14:48;;;;;;;11.02;3.65;;;37.90;18.70;;;;;;21128261;27;80441;-70
2021/08/23 17:24:53;;;;;;;9.70;4.03;;;36.90;19.70;;;;;;21112941;27;80930;-70
2021/08/23 17:34:55;;;;;;;13.70;3.22;;;36.10;21.10;;;;;;21145352;27;82945;-69
2021/08/23 17:44:57;;;;;;;12.68;3.00;;;35.40;21.80;;;;;;21107912;27;82211;-69
2021/08/23 17:54:59;;;;;;;6.85;2.88;;;35.30;21.80;;;;;;21143498;27;81290;-70
2021/08/23 18:05:01;;;;;;;10.50;3.28;;;34.90;21.90;;;;;;21142504;27;80961;-69
2021/08/23 18:15:04;;;;;;;13.25;4.45;;;34.40;22.40;;;;;;21124231;27;81712;-69
2021/08/23 18:25:06;;;;;;;13.73;4.10;;;34.80;22.90;;;;;;21141622;27;80003;-60
2021/08/23 18:35:08;;;;;;;9.88;4.28;;;34.20;27.20;;;;;;21122795;27;79959;-61
2021/08/23 18:45:10;;;;;;;23.60;7.55;;;33.30;26.80;;;;;;21122377;27;80836;-62
2021/08/23 18:55:12;;;;;;;21.13;6.72;;;32.90;27.50;;;;;;21139578;27;79916;-62
2021/08/23 19:05:14;;;;;;;14.15;5.82;;;32.70;27.70;;;;;;21139717;27;80221;-63
2021/08/23 19:15:16;;;;;;;19.58;5.80;;;32.40;27.60;;;;;;21120585;27;80914;-64
2021/08/23 19:25:17;;;;;;;9.90;4.20;;;32.00;27.80;;;;;;21120713;27;82755;-73
2021/08/23 19:35:19;;;;;;;15.50;3.50;;;31.90;27.10;;;;;;21119632;27;80799;-70
2021/08/23 19:45:21;;;;;;;18.17;4.13;;;31.70;27.40;;;;;;21137948;27;79994;-72
2021/08/23 19:55:23;;;;;;;13.32;3.65;;;31.50;26.50;;;;;;21118948;27;79825;-70
2021/08/23 20:05:25;;;;;;;10.13;3.00;;;31.40;26.60;;;;;;21142444;27;81875;-72
2021/08/23 20:15:27;;;;;;;10.65;3.15;;;31.20;27.10;;;;;;21131629;27;81273;-69
2021/08/23 20:25:30;;;;;;;13.02;4.40;;;30.90;27.00;;;;;;21132259;27;80890;-72
2021/08/23 20:35:39;;;;;;;12.35;3.83;;;30.70;27.20;;;;;;21133927;27;81402;-70
2021/08/23 20:45:42;;;;;;;;;;;30.50;28.00;;;;;;21131693;27;80923;-76
2021/08/23 20:55:44;;;;;;;12.25;2.90;;;30.20;28.10;;;;;;21157308;27;80873;-74
2021/08/23 21:05:46;;;;;;;8.27;3.20;;;30.10;28.10;;;;;;21061082;27;80151;-78
2021/08/23 21:15:49;;;;;;;7.40;2.28;;;30.00;28.90;;;;;;21060988;27;80881;-72
2021/08/23 21:25:51;;;;;;;7.60;2.30;;;30.10;27.80;;;;;;21062836;27;79861;-74
2021/08/23 21:35:54;;;;;;;7.38;2.50;;;30.10;27.90;;;;;;21025847;27;80659;-74
2021/08/23 21:45:56;;;;;;;6.97;2.53;;;30.00;28.00;;;;;;21060706;27;80901;-71
2021/08/23 21:55:59;;;;;;;11.75;3.17;;;29.90;28.40;;;;;;21041640;27;80285;-72
2021/08/23 22:06:05;;;;;;;6.60;1.90;;;29.60;28.80;;;;;;21042062;27;81024;-72
2021/08/23 22:16:15;;;;;;;8.15;2.60;;;29.50;29.40;;;;;;21058878;27;80460;-71
2021/08/23 22:26:17;;;;;;;6.70;1.95;;;29.30;30.00;;;;;;21039524;27;81765;-71
2021/08/23 22:36:22;;;;;;;8.68;2.55;;;29.10;31.00;;;;;;21039417;27;80903;-73
2021/08/23 22:46:25;;;;;;;9.02;2.80;;;28.90;32.10;;;;;;21038442;27;80728;-71
2021/08/23 22:56:27;;;;;;;10.43;2.72;;;28.80;33.30;;;;;;21054297;27;80401;-74
2021/08/23 23:06:29;;;;;;;8.77;2.83;;;28.60;33.60;;;;;;21053657;27;81024;-71
2021/08/23 23:16:33;;;;;;;6.72;2.80;;;28.40;34.10;;;;;;21035842;27;79970;-71
2021/08/23 23:26:35;;;;;;;9.50;3.00;;;28.30;34.50;;;;;;21033670;27;81295;-70
2021/08/23 23:36:38;;;;;;;5.57;2.13;;;28.20;35.60;;;;;;21035750;27;80993;-72
2021/08/23 23:46:40;;;;;;;11.57;3.10;;;28.10;35.40;;;;;;21049155;27;81145;-74
2021/08/23 23:56:44;;;;;;;9.05;2.78;;;28.00;35.50;;;;;;21066668;27;81094;-70
